Time;durP1;ratioP1;P1;durP2;ratioP2;P2;SDS_P1;SDS_P2;PMS_P1;PMS_P2;Temp;Humidity;BMP_temperature;BMP_pressure;BME280_temperature;BME280_humidity;BME280_pressure;Samples;Min_cycle;Max_cycle;Signal;HPM_P1;HPM_P2
2022/07/23 00:00:17;;;;;;;;;;;22.30;99.90;;;;;;4592697;19;19911;-34
2022/07/23 00:02:08;;;;;;;;;;;22.30;99.90;;;;;;4592195;19;19919;-34
2022/07/23 00:03:39;;;;;;;;;;;22.30;99.90;;;;;;4592040;19;19919;-36
2022/07/23 00:05:10;;;;;;;;;;;22.30;99.90;;;;;;4592239;19;19926;-37
2022/07/23 00:06:40;;;;;;;;;;;22.20;99.90;;;;;;4591226;19;19919;-35
2022/07/23 00:08:11;;;;;;;;;;;22.20;99.90;;;;;;4591565;19;19922;-36
2022/07/23 00:09:43;;;;;;;;;;;22.30;99.90;;;;;;4592066;19;19918;-38
2022/07/23 00:11:13;;;;;;;;;;;22.20;99.90;;;;;;4591989;19;20391;-38
2022/07/23 00:12:44;;;;;;;;;;;22.20;99.90;;;;;;4592337;19;19971;-44
2022/07/23 00:14:15;;;;;;;;;;;22.20;99.90;;;;;;4591538;19;19921;-34
2022/07/23 00:15:46;;;;;;;;;;;22.20;99.90;;;;;;4591759;19;19911;-37
2022/07/23 00:17:17;;;;;;;;;;;22.20;99.90;;;;;;4590925;19;19926;-41
2022/07/23 00:18:48;;;;;;;;;;;22.20;99.90;;;;;;4592350;19;19911;-40
2022/07/23 00:20:19;;;;;;;;;;;22.20;99.90;;;;;;4591590;19;20253;-40
2022/07/23 00:21:50;;;;;;;;;;;22.20;99.90;;;;;;4592180;19;19955;-34
2022/07/23 00:23:21;;;;;;;;;;;22.20;99.90;;;;;;4591429;19;19919;-37
2022/07/23 00:24:52;;;;;;;;;;;22.20;99.90;;;;;;4591998;19;19907;-35
2022/07/23 00:26:23;;;;;;;;;;;22.20;99.90;;;;;;4592658;19;19925;-36
2022/07/23 00:27:54;;;;;;;;;;;22.20;99.90;;;;;;4591239;19;19982;-40
2022/07/23 00:29:25;;;;;;;;;;;22.20;99.90;;;;;;4592060;19;19937;-35
2022/07/23 00:30:56;;;;;;;;;;;22.20;99.90;;;;;;4591141;19;20258;-40
2022/07/23 00:32:27;;;;;;;;;;;22.20;99.90;;;;;;4590977;19;19933;-38
2022/07/23 00:34:00;;;;;;;;;;;22.20;99.90;;;;;;4591936;19;19994;-35
2022/07/23 00:35:33;;;;;;;;;;;22.20;99.90;;;;;;4591465;19;19929;-40
2022/07/23 00:37:04;;;;;;;;;;;22.20;99.90;;;;;;4591298;19;19947;-35
2022/07/23 00:38:35;;;;;;;;;;;22.10;99.90;;;;;;4592699;19;19919;-35
2022/07/23 00:40:07;;;;;;;;;;;22.10;99.90;;;;;;4592042;19;19991;-35
2022/07/23 00:41:39;;;;;;;;;;;22.10;99.90;;;;;;4591104;19;20335;-44
2022/07/23 00:43:10;;;;;;;;;;;22.10;99.90;;;;;;4591926;19;19918;-41
2022/07/23 00:44:40;;;;;;;;;;;22.10;99.90;;;;;;4590079;19;20327;-35
2022/07/23 00:46:12;;;;;;;;;;;22.10;99.90;;;;;;4591376;19;20008;-37
2022/07/23 00:47:45;;;;;;;;;;;22.10;99.90;;;;;;4591204;19;19932;-37
2022/07/23 00:49:16;;;;;;;;;;;22.10;99.90;;;;;;4591130;19;20232;-36
2022/07/23 00:50:48;;;;;;;;;;;22.10;99.90;;;;;;4591285;19;19966;-34
2022/07/23 00:52:19;;;;;;;;;;;22.10;99.90;;;;;;4590793;19;19918;-37
2022/07/23 00:53:50;;;;;;;;;;;22.10;99.90;;;;;;4588996;19;20277;-44
2022/07/23 00:55:21;;;;;;;;;;;22.10;99.90;;;;;;4590370;19;19919;-42
2022/07/23 00:56:52;;;;;;;;;;;22.10;99.90;;;;;;4590931;19;20233;-35
2022/07/23 00:58:23;;;;;;;;;;;22.10;99.90;;;;;;4591036;19;19918;-36
2022/07/23 00:59:54;;;;;;;;;;;22.10;99.90;;;;;;4591723;19;19929;-37
2022/07/23 01:01:25;;;;;;;;;;;22.10;99.90;;;;;;4590577;19;19914;-36
2022/07/23 01:02:56;;;;;;;;;;;22.10;99.90;;;;;;4588611;19;19922;-35
2022/07/23 01:04:27;;;;;;;;;;;22.00;99.90;;;;;;4590373;19;19997;-35
2022/07/23 01:05:58;;;;;;;;;;;22.10;99.90;;;;;;4592515;19;20382;-36
2022/07/23 01:07:29;;;;;;;;;;;22.10;99.90;;;;;;4590660;19;19918;-38
2022/07/23 01:09:00;;;;;;;;;;;22.00;99.90;;;;;;4591235;19;19927;-36
2022/07/23 01:10:31;;;;;;;;;;;22.00;99.90;;;;;;4590362;19;20285;-40
2022/07/23 01:12:02;;;;;;;;;;;22.00;99.90;;;;;;4588750;19;20136;-37
2022/07/23 01:13:33;;;;;;;;;;;22.00;99.90;;;;;;4590342;19;19918;-39
2022/07/23 01:15:05;;;;;;;;;;;22.00;99.90;;;;;;4591373;19;19932;-35
2022/07/23 01:16:36;;;;;;;;;;;22.00;99.90;;;;;;4590590;19;19915;-35
2022/07/23 01:18:07;;;;;;;;;;;22.00;99.90;;;;;;4588491;19;19986;-34
2022/07/23 01:19:38;;;;;;;;;;;22.00;99.90;;;;;;4590201;19;19915;-43
2022/07/23 01:21:10;;;;;;;;;;;22.00;99.90;;;;;;4590724;19;19974;-44
2022/07/23 01:22:41;;;;;;;;;;;22.00;99.90;;;;;;4590586;19;19915;-35
2022/07/23 01:24:12;;;;;;;;;;;22.00;99.90;;;;;;4589551;19;19926;-41
2022/07/23 01:25:53;;;;;;;;;;;22.00;99.90;;;;;;4591093;19;19915;-37
2022/07/23 01:27:23;;;;;;;;;;;22.00;99.90;;;;;;4591421;19;20261;-38
2022/07/23 01:28:55;;;;;;;;;;;22.00;99.90;;;;;;4591313;19;19939;-34
2022/07/23 01:30:26;;;;;;;;;;;22.00;99.90;;;;;;4590694;19;19919;-33
2022/07/23 01:31:56;;;;;;;;;;;22.00;99.90;;;;;;4591387;19;20241;-35
2022/07/23 01:33:27;;;;;;;;;;;22.00;99.90;;;;;;4590559;19;20329;-37
2022/07/23 01:34:58;;;;;;;;;;;22.00;99.90;;;;;;4591296;19;19998;-39
2022/07/23 01:36:29;;;;;;;;;;;22.00;99.90;;;;;;4590710;19;19945;-37
2022/07/23 01:38:00;;;;;;;;;;;22.00;99.90;;;;;;4588845;19;20348;-38
2022/07/23 01:39:31;;;;;;;;;;;21.90;99.90;;;;;;4590407;19;19915;-37
2022/07/23 01:41:02;;;;;;;;;;;22.00;99.90;;;;;;4589177;19;19935;-37
2022/07/23 01:42:33;;;;;;;;;;;22.00;99.90;;;;;;4590581;19;20260;-35
2022/07/23 01:44:04;;;;;;;;;;;22.00;99.90;;;;;;4590529;19;19923;-38
2022/07/23 01:45:35;;;;;;;;;;;21.90;99.90;;;;;;4591084;19;20260;-42
2022/07/23 01:47:06;;;;;;;;;;;21.90;99.90;;;;;;4590591;19;19923;-35
2022/07/23 01:48:37;;;;;;;;;;;21.90;99.90;;;;;;4587482;19;19911;-34
2022/07/23 01:50:08;;;;;;;;;;;21.90;99.90;;;;;;4590462;19;19915;-39
2022/07/23 01:51:59;;;;;;;;;;;21.90;99.90;;;;;;4591563;19;19915;-36
2022/07/23 01:53:33;;;;;;;;;;;21.90;99.90;;;;;;4590573;19;19926;-43
2022/07/23 01:55:05;;;;;;;;;;;21.90;99.90;;;;;;4589311;19;19918;-36
2022/07/23 01:56:36;;;;;;;;;;;21.90;99.90;;;;;;4590553;19;19922;-35
2022/07/23 01:58:07;;;;;;;;;;;21.90;99.90;;;;;;4589706;19;19970;-36
2022/07/23 01:59:39;;;;;;;;;;;21.90;99.90;;;;;;4590193;19;19922;-37
2022/07/23 02:01:10;;;;;;;;;;;21.90;99.90;;;;;;4589430;19;19914;-37
2022/07/23 02:02:41;;;;;;;;;;;21.90;99.90;;;;;;4590360;19;20359;-36
2022/07/23 02:04:11;;;;;;;;;;;21.90;99.90;;;;;;4591328;19;19927;-37
2022/07/23 02:05:43;;;;;;;;;;;21.90;99.90;;;;;;4590237;19;20384;-39
2022/07/23 02:07:14;;;;;;;;;;;21.90;99.90;;;;;;4590497;19;19918;-39
2022/07/23 02:08:45;;;;;;;;;;;21.90;99.90;;;;;;4589420;19;19919;-34
2022/07/23 02:10:16;;;;;;;;;;;21.90;99.90;;;;;;4590150;19;19915;-39
2022/07/23 02:11:47;;;;;;;;;;;21.80;99.90;;;;;;4590266;19;19911;-40
2022/07/23 02:13:18;;;;;;;;;;;21.90;99.90;;;;;;4589678;19;19923;-37
2022/07/23 02:14:49;;;;;;;;;;;21.80;99.90;;;;;;4590812;19;19940;-34
2022/07/23 02:16:20;;;;;;;;;;;21.80;99.90;;;;;;4591059;19;19933;-37
2022/07/23 02:17:51;;;;;;;;;;;21.80;99.90;;;;;;4592751;19;19911;-35
2022/07/23 02:19:22;;;;;;;;;;;21.80;99.90;;;;;;4595056;19;19911;-34
2022/07/23 02:20:53;;;;;;;;;;;21.80;99.90;;;;;;4595522;19;19919;-39
2022/07/23 02:22:24;;;;;;;;;;;21.80;99.90;;;;;;4593500;19;19923;-37
2022/07/23 02:23:56;;;;;;;;;;;21.80;99.90;;;;;;4594462;19;19911;-44
2022/07/23 02:25:27;;;;;;;;;;;21.80;99.90;;;;;;4593431;19;19914;-39
2022/07/23 02:26:57;;;;;;;;;;;21.80;99.90;;;;;;4594877;19;19925;-36
2022/07/23 02:28:28;;;;;;;;;;;21.80;99.90;;;;;;4594425;19;19907;-40
2022/07/23 02:30:00;;;;;;;;;;;21.80;99.90;;;;;;4595042;19;20262;-36
2022/07/23 02:31:31;;;;;;;;;;;21.80;99.90;;;;;;4595246;19;19923;-35
2022/07/23 02:33:01;;;;;;;;;;;21.80;99.90;;;;;;4594575;19;19911;-36
2022/07/23 02:34:32;;;;;;;;;;;21.70;99.90;;;;;;4594610;19;19911;-40
2022/07/23 02:36:04;;;;;;;;;;;21.60;99.90;;;;;;4594645;19;19919;-35
2022/07/23 02:37:35;;;;;;;;;;;21.60;99.90;;;;;;4594169;19;19911;-37
2022/07/23 02:39:06;;;;;;;;;;;21.50;99.90;;;;;;4594388;19;19919;-37
2022/07/23 02:40:37;;;;;;;;;;;21.40;99.90;;;;;;4594702;19;19937;-44
2022/07/23 02:42:08;;;;;;;;;;;21.40;99.90;;;;;;4595149;19;19963;-37
2022/07/23 02:43:39;;;;;;;;;;;21.30;99.90;;;;;;4595002;19;19930;-37
2022/07/23 02:45:10;;;;;;;;;;;21.30;99.90;;;;;;4594274;19;19925;-38
2022/07/23 02:46:41;;;;;;;;;;;21.30;99.90;;;;;;4594437;19;19923;-36
2022/07/23 02:48:13;;;;;;;;;;;21.30;99.90;;;;;;4594434;19;19923;-39
2022/07/23 02:49:44;;;;;;;;;;;21.20;99.90;;;;;;4594713;19;19934;-40
2022/07/23 02:51:15;;;;;;;;;;;21.20;99.90;;;;;;4594419;19;19911;-38
2022/07/23 02:52:46;;;;;;;;;;;21.20;99.90;;;;;;4594579;19;19970;-38
2022/07/23 02:54:17;;;;;;;;;;;21.10;99.90;;;;;;4593630;19;19922;-38
2022/07/23 02:55:48;;;;;;;;;;;21.10;99.90;;;;;;4594154;19;19937;-37
2022/07/23 02:57:19;;;;;;;;;;;21.10;99.90;;;;;;4593016;19;19911;-35
2022/07/23 02:58:50;;;;;;;;;;;21.10;99.90;;;;;;4593736;19;19915;-35
2022/07/23 03:00:21;;;;;;;;;;;21.10;99.90;;;;;;4594739;19;19975;-40
2022/07/23 03:01:52;;;;;;;;;;;21.10;99.90;;;;;;4594073;19;19922;-39
2022/07/23 03:03:23;;;;;;;;;;;21.10;99.90;;;;;;4592831;19;19922;-39
2022/07/23 03:04:54;;;;;;;;;;;21.10;99.90;;;;;;4593602;19;20233;-39
2022/07/23 03:06:25;;;;;;;;;;;21.10;99.90;;;;;;4594335;19;19926;-36
2022/07/23 03:07:56;;;;;;;;;;;21.10;99.90;;;;;;4594009;19;19911;-39
2022/07/23 03:09:27;;;;;;;;;;;21.10;99.90;;;;;;4594300;19;20321;-37
2022/07/23 03:10:58;;;;;;;;;;;21.10;99.90;;;;;;4594384;19;19919;-37
2022/07/23 03:12:29;;;;;;;;;;;21.00;99.90;;;;;;4593791;19;20376;-43
2022/07/23 03:14:00;;;;;;;;;;;21.00;99.90;;;;;;4593924;19;19922;-37
2022/07/23 03:15:31;;;;;;;;;;;21.00;99.90;;;;;;4593481;19;19919;-38
2022/07/23 03:17:02;;;;;;;;;;;21.00;99.90;;;;;;4592644;19;19948;-39
2022/07/23 03:18:33;;;;;;;;;;;21.00;99.90;;;;;;4592665;19;19971;-38
2022/07/23 03:20:04;;;;;;;;;;;21.00;99.90;;;;;;4593557;19;20271;-36
2022/07/23 03:21:39;;;;;;;;;;;21.00;99.90;;;;;;4593699;19;19910;-35
2022/07/23 03:23:10;;;;;;;;;;;21.00;99.90;;;;;;4593669;19;20255;-36
2022/07/23 03:24:54;;;;;;;;;;;20.90;99.90;;;;;;4592767;19;19919;-36
2022/07/23 03:26:25;;;;;;;;;;;20.90;99.90;;;;;;4593053;19;19927;-38
2022/07/23 03:27:56;;;;;;;;;;;20.90;99.90;;;;;;4594057;19;19937;-39
2022/07/23 03:29:27;;;;;;;;;;;20.90;99.90;;;;;;4592559;19;19922;-35
2022/07/23 03:30:58;;;;;;;;;;;20.90;99.90;;;;;;4592934;19;19922;-38
2022/07/23 03:32:29;;;;;;;;;;;20.90;99.90;;;;;;4593768;19;20264;-35
2022/07/23 03:34:00;;;;;;;;;;;20.90;99.90;;;;;;4592772;19;19993;-39
2022/07/23 03:35:31;;;;;;;;;;;20.90;99.90;;;;;;4593168;19;19933;-36
2022/07/23 03:37:02;;;;;;;;;;;20.90;99.90;;;;;;4593150;19;19993;-38
2022/07/23 03:38:33;;;;;;;;;;;20.90;99.90;;;;;;4593260;19;19907;-38
2022/07/23 03:40:04;;;;;;;;;;;20.90;99.90;;;;;;4593958;19;19918;-35
2022/07/23 03:41:35;;;;;;;;;;;20.90;99.90;;;;;;4593152;19;19917;-41
2022/07/23 03:43:06;;;;;;;;;;;20.90;99.90;;;;;;4592226;19;19911;-35
2022/07/23 03:44:38;;;;;;;;;;;20.90;99.90;;;;;;4593270;19;19993;-41
2022/07/23 03:46:09;;;;;;;;;;;20.90;99.90;;;;;;4593453;19;20240;-35
2022/07/23 03:47:40;;;;;;;;;;;20.90;99.90;;;;;;4593190;19;19936;-35
2022/07/23 03:49:11;;;;;;;;;;;20.90;99.90;;;;;;4593224;19;20413;-39
2022/07/23 03:50:42;;;;;;;;;;;20.90;99.90;;;;;;4593563;19;19915;-36
2022/07/23 03:52:13;;;;;;;;;;;20.90;99.90;;;;;;4592998;19;19919;-35
2022/07/23 03:53:44;;;;;;;;;;;20.90;99.90;;;;;;4592451;19;19919;-38
2022/07/23 03:55:15;;;;;;;;;;;20.90;99.90;;;;;;4593250;19;19975;-37
2022/07/23 03:56:46;;;;;;;;;;;20.90;99.90;;;;;;4593783;19;19918;-44
2022/07/23 03:58:17;;;;;;;;;;;20.90;99.90;;;;;;4592249;19;19926;-35
2022/07/23 03:59:48;;;;;;;;;;;20.90;99.90;;;;;;4593085;19;19915;-42
2022/07/23 04:01:19;;;;;;;;;;;20.90;99.90;;;;;;4593616;19;19922;-35
2022/07/23 04:02:50;;;;;;;;;;;20.90;99.90;;;;;;4593590;19;19911;-42
2022/07/23 04:04:21;;;;;;;;;;;20.90;99.90;;;;;;4592694;19;19971;-36
2022/07/23 04:05:52;;;;;;;;;;;20.90;99.90;;;;;;4591880;19;19919;-39
2022/07/23 04:07:23;;;;;;;;;;;20.90;99.90;;;;;;4592695;19;19923;-39
2022/07/23 04:08:54;;;;;;;;;;;20.90;99.90;;;;;;4592923;19;19926;-38
2022/07/23 04:10:25;;;;;;;;;;;20.90;99.90;;;;;;4592530;19;19918;-41
2022/07/23 04:11:56;;;;;;;;;;;20.90;99.90;;;;;;4593050;19;19910;-42
2022/07/23 04:13:27;;;;;;;;;;;20.90;99.90;;;;;;4591285;19;19921;-36
2022/07/23 04:14:58;;;;;;;;;;;20.90;99.90;;;;;;4592101;19;19915;-41
2022/07/23 04:16:31;;;;;;;;;;;20.90;99.90;;;;;;4591386;19;20333;-35
2022/07/23 04:18:01;;;;;;;;;;;20.90;99.90;;;;;;4589818;19;19990;-35
2022/07/23 04:19:34;;;;;;;;;;;20.90;99.90;;;;;;4591492;19;20265;-35
2022/07/23 04:21:05;;;;;;;;;;;20.90;99.90;;;;;;4591879;19;19933;-40
2022/07/23 04:22:36;;;;;;;;;;;21.00;99.90;;;;;;4592586;19;19915;-35
2022/07/23 04:24:07;;;;;;;;;;;20.90;99.90;;;;;;4591005;19;19910;-35
2022/07/23 04:25:38;;;;;;;;;;;20.90;99.90;;;;;;4592440;19;19977;-39
2022/07/23 04:27:09;;;;;;;;;;;21.00;99.90;;;;;;4592455;19;19911;-40
2022/07/23 04:28:40;;;;;;;;;;;21.00;99.90;;;;;;4592440;19;20282;-36
2022/07/23 04:30:11;;;;;;;;;;;21.00;99.90;;;;;;4590288;19;19915;-35
2022/07/23 04:31:42;;;;;;;;;;;21.00;99.90;;;;;;4591280;19;19919;-36
2022/07/23 04:33:13;;;;;;;;;;;21.00;99.90;;;;;;4592379;19;20395;-37
2022/07/23 04:34:44;;;;;;;;;;;21.00;99.90;;;;;;4592375;19;20328;-35
2022/07/23 04:36:15;;;;;;;;;;;21.00;99.90;;;;;;4592439;19;19922;-39
2022/07/23 04:37:46;;;;;;;;;;;21.00;99.90;;;;;;4588710;19;19915;-35
2022/07/23 04:39:17;;;;;;;;;;;21.00;99.90;;;;;;4592321;19;19918;-35
2022/07/23 04:40:48;;;;;;;;;;;21.00;99.90;;;;;;4592725;19;19918;-35
2022/07/23 04:42:18;;;;;;;;;;;21.00;99.90;;;;;;4592408;19;19929;-39
2022/07/23 04:43:50;;;;;;;;;;;21.00;99.90;;;;;;4591828;19;19978;-41
2022/07/23 04:45:20;;;;;;;;;;;21.00;99.90;;;;;;4592885;19;19923;-38
2022/07/23 04:46:51;;;;;;;;;;;21.10;99.90;;;;;;4592844;19;20256;-38
2022/07/23 04:48:22;;;;;;;;;;;21.30;99.90;;;;;;4591858;19;19930;-35
2022/07/23 04:49:53;;;;;;;;;;;21.40;99.90;;;;;;4592202;19;19932;-34
2022/07/23 04:51:24;;;;;;;;;;;21.50;99.90;;;;;;4592346;19;19919;-36
2022/07/23 04:52:55;;;;;;;;;;;21.60;99.90;;;;;;4592054;19;20393;-35
2022/07/23 04:54:26;;;;;;;;;;;21.70;99.90;;;;;;4591982;19;20210;-37
2022/07/23 04:55:57;;;;;;;;;;;21.80;99.90;;;;;;4592302;19;19922;-43
2022/07/23 04:57:28;;;;;;;;;;;21.90;99.90;;;;;;4591690;19;20272;-40
2022/07/23 04:58:59;;;;;;;;;;;22.00;99.90;;;;;;4592005;19;19930;-37
2022/07/23 05:00:30;;;;;;;;;;;22.00;99.90;;;;;;4591865;19;19918;-34
2022/07/23 05:02:01;;;;;;;;;;;22.10;99.90;;;;;;4592061;19;20368;-41
2022/07/23 05:03:32;;;;;;;;;;;22.10;99.90;;;;;;4591929;19;19915;-38
2022/07/23 05:05:03;;;;;;;;;;;22.20;99.90;;;;;;4591769;19;19922;-35
2022/07/23 05:06:34;;;;;;;;;;;22.20;99.90;;;;;;4591679;19;19926;-38
2022/07/23 05:08:05;;;;;;;;;;;22.20;99.90;;;;;;4591970;19;19918;-40
2022/07/23 05:09:36;;;;;;;;;;;22.30;99.90;;;;;;4592188;19;19911;-41
2022/07/23 05:11:07;;;;;;;;;;;22.30;99.90;;;;;;4591531;19;19915;-37
2022/07/23 05:12:38;;;;;;;;;;;22.40;99.90;;;;;;4591447;19;19915;-38
2022/07/23 05:14:12;;;;;;;;;;;22.40;99.90;;;;;;4590556;19;19919;-40
2022/07/23 05:15:43;;;;;;;;;;;22.40;99.90;;;;;;4591044;19;19927;-37
2022/07/23 05:17:14;;;;;;;;;;;22.50;99.90;;;;;;4589914;19;19986;-43
2022/07/23 05:18:45;;;;;;;;;;;22.50;99.90;;;;;;4591934;19;19929;-36
2022/07/23 05:20:16;;;;;;;;;;;22.60;99.90;;;;;;4590980;19;19926;-40
2022/07/23 05:21:47;;;;;;;;;;;22.60;99.90;;;;;;4588625;19;19918;-38
2022/07/23 05:23:18;;;;;;;;;;;22.60;99.90;;;;;;4591543;19;20526;-39
2022/07/23 05:24:48;;;;;;;;;;;22.70;99.90;;;;;;4590491;19;20349;-39
2022/07/23 05:26:20;;;;;;;;;;;22.50;99.90;;;;;;4592434;19;19959;-43
2022/07/23 05:27:50;;;;;;;;;;;22.30;99.90;;;;;;4590967;19;19914;-36
2022/07/23 05:29:21;;;;;;;;;;;22.10;99.90;;;;;;4591443;19;19915;-36
2022/07/23 05:30:52;;;;;;;;;;;21.90;99.90;;;;;;4590857;19;20170;-40
2022/07/23 05:32:23;;;;;;;;;;;21.80;99.90;;;;;;4590947;19;19923;-40
2022/07/23 05:33:54;;;;;;;;;;;21.70;99.90;;;;;;4591260;19;19918;-39
2022/07/23 05:35:25;;;;;;;;;;;21.70;99.90;;;;;;4589784;19;19919;-35
2022/07/23 05:36:56;;;;;;;;;;;21.70;99.90;;;;;;4591398;19;20580;-40
2022/07/23 05:38:27;;;;;;;;;;;21.70;99.90;;;;;;4590757;19;19940;-39
2022/07/23 05:40:02;;;;;;;;;;;21.60;99.90;;;;;;4591463;19;19911;-35
2022/07/23 05:41:33;;;;;;;;;;;21.60;99.90;;;;;;4590893;19;19927;-42
2022/07/23 05:43:04;;;;;;;;;;;21.60;99.90;;;;;;4591769;19;19918;-45
2022/07/23 05:44:35;;;;;;;;;;;21.60;99.90;;;;;;4591155;19;19939;-42
2022/07/23 05:46:06;;;;;;;;;;;21.60;99.90;;;;;;4589749;19;20471;-35
2022/07/23 05:47:40;;;;;;;;;;;21.50;99.90;;;;;;4591390;19;19915;-36
2022/07/23 05:49:11;;;;;;;;;;;21.50;99.90;;;;;;4593916;19;20309;-41
2022/07/23 05:50:43;;;;;;;;;;;21.50;99.90;;;;;;4595402;19;19952;-35
2022/07/23 05:52:14;;;;;;;;;;;21.50;99.90;;;;;;4595591;19;19945;-35
2022/07/23 05:53:45;;;;;;;;;;;21.50;99.90;;;;;;4595858;19;19910;-34
2022/07/23 05:55:15;;;;;;;;;;;21.50;99.90;;;;;;4594787;19;19915;-38
2022/07/23 05:56:47;;;;;;;;;;;21.50;99.90;;;;;;4595031;19;19919;-39
2022/07/23 05:58:17;;;;;;;;;;;21.50;99.90;;;;;;4593412;19;19921;-42
2022/07/23 05:59:48;;;;;;;;;;;21.50;99.90;;;;;;4596141;19;20247;-35
2022/07/23 06:01:19;;;;;;;;;;;21.50;99.90;;;;;;4594050;19;19918;-37
2022/07/23 06:02:50;;;;;;;;;;;21.50;99.90;;;;;;4594775;19;19919;-35
2022/07/23 06:04:21;;;;;;;;;;;21.50;99.90;;;;;;4595843;19;20252;-35
2022/07/23 06:05:52;;;;;;;;;;;21.50;99.90;;;;;;4595529;19;19922;-35
2022/07/23 06:07:23;;;;;;;;;;;21.80;99.90;;;;;;4594996;19;19919;-36
2022/07/23 06:08:54;;;;;;;;;;;22.10;99.90;;;;;;4595209;19;19990;-40
2022/07/23 06:10:25;;;;;;;;;;;22.30;99.90;;;;;;4595581;19;19923;-38
2022/07/23 06:11:56;;;;;;;;;;;22.50;99.90;;;;;;4594122;19;19929;-36
2022/07/23 06:13:27;;;;;;;;;;;22.60;99.90;;;;;;4594721;19;19925;-37
2022/07/23 06:14:58;;;;;;;;;;;22.80;99.90;;;;;;4595156;19;20319;-37
2022/07/23 06:16:29;;;;;;;;;;;22.90;99.90;;;;;;4593968;19;19930;-40
2022/07/23 06:18:00;;;;;;;;;;;23.00;99.90;;;;;;4593898;19;19915;-41
2022/07/23 06:19:31;;;;;;;;;;;23.10;99.90;;;;;;4594130;19;19911;-40
2022/07/23 06:21:02;;;;;;;;;;;23.20;99.90;;;;;;4595184;19;19938;-38
2022/07/23 06:22:33;;;;;;;;;;;23.20;99.90;;;;;;4593950;19;19906;-40
2022/07/23 06:24:04;;;;;;;;;;;23.30;99.90;;;;;;4593792;19;20358;-38
2022/07/23 06:25:35;;;;;;;;;;;23.20;99.90;;;;;;4594552;19;19972;-38
2022/07/23 06:27:07;;;;;;;;;;;22.60;99.90;;;;;;4594968;19;19919;-37
2022/07/23 06:28:37;;;;;;;;;;;22.60;99.90;;;;;;4594682;19;19919;-37
2022/07/23 06:30:10;;;;;;;;;;;22.70;99.90;;;;;;4594679;19;19922;-44
2022/07/23 06:31:40;;;;;;;;;;;22.80;99.90;;;;;;4595293;19;19923;-40
2022/07/23 06:33:12;;;;;;;;;;;22.90;99.90;;;;;;4595523;19;19925;-37
2022/07/23 06:34:43;;;;;;;;;;;23.10;99.90;;;;;;4592236;19;19915;-40
2022/07/23 06:36:14;;;;;;;;;;;23.20;99.90;;;;;;4593843;19;19911;-40
2022/07/23 06:37:45;;;;;;;;;;;23.30;99.90;;;;;;4594061;19;19918;-35
2022/07/23 06:39:16;;;;;;;;;;;23.30;99.90;;;;;;4595156;19;19923;-41
2022/07/23 06:40:47;;;;;;;;;;;23.30;99.90;;;;;;4593503;19;19981;-36
2022/07/23 06:42:17;;;;;;;;;;;23.30;99.90;;;;;;4594295;19;19911;-42
2022/07/23 06:43:48;;;;;;;;;;;23.30;99.90;;;;;;4594686;19;19943;-40
2022/07/23 06:45:20;;;;;;;;;;;23.30;99.90;;;;;;4594716;19;19915;-42
2022/07/23 06:46:50;;;;;;;;;;;23.30;99.90;;;;;;4594445;19;19919;-37
2022/07/23 06:48:22;;;;;;;;;;;23.30;99.90;;;;;;4594808;19;19940;-41
2022/07/23 06:49:53;;;;;;;;;;;23.30;99.90;;;;;;4594714;19;20229;-36
2022/07/23 06:51:24;;;;;;;;;;;23.30;99.90;;;;;;4595054;19;19918;-41
2022/07/23 06:52:55;;;;;;;;;;;23.30;99.90;;;;;;4593280;19;19970;-36
2022/07/23 06:54:26;;;;;;;;;;;23.30;99.90;;;;;;4592051;19;20241;-39
2022/07/23 06:55:57;;;;;;;;;;;23.30;99.90;;;;;;4593877;19;19930;-40
2022/07/23 06:57:28;;;;;;;;;;;23.30;99.90;;;;;;4593351;19;20317;-36
2022/07/23 06:58:59;;;;;;;;;;;23.20;99.90;;;;;;4594144;19;19918;-39
2022/07/23 07:00:31;;;;;;;;;;;23.30;99.90;;;;;;4593276;19;20332;-38
2022/07/23 07:02:02;;;;;;;;;;;23.30;99.90;;;;;;4594084;19;19919;-43
2022/07/23 07:03:33;;;;;;;;;;;23.30;99.90;;;;;;4594167;19;20325;-42
2022/07/23 07:05:04;;;;;;;;;;;23.30;99.90;;;;;;4594392;19;19911;-35
2022/07/23 07:06:35;;;;;;;;;;;23.30;99.90;;;;;;4594198;19;19911;-40
2022/07/23 07:08:06;;;;;;;;;;;23.30;99.90;;;;;;4593063;19;19922;-35
2022/07/23 07:09:37;;;;;;;;;;;23.30;99.90;;;;;;4593611;19;20269;-41
2022/07/23 07:11:08;;;;;;;;;;;23.40;99.90;;;;;;4593854;19;19919;-39
2022/07/23 07:12:39;;;;;;;;;;;23.40;99.90;;;;;;4594539;19;19933;-35
2022/07/23 07:14:10;;;;;;;;;;;23.40;99.90;;;;;;4593742;19;20328;-35
2022/07/23 07:15:41;;;;;;;;;;;23.40;99.90;;;;;;4593881;19;19915;-36
2022/07/23 07:17:12;;;;;;;;;;;23.40;99.90;;;;;;4592293;19;19915;-40
2022/07/23 07:18:43;;;;;;;;;;;23.40;99.90;;;;;;4593938;19;19948;-37
2022/07/23 07:20:14;;;;;;;;;;;23.50;99.90;;;;;;4593633;19;19922;-41
2022/07/23 07:21:45;;;;;;;;;;;23.40;99.90;;;;;;4593765;19;19923;-37
2022/07/23 07:23:16;;;;;;;;;;;23.40;99.90;;;;;;4593452;19;19914;-39
2022/07/23 07:24:47;;;;;;;;;;;23.40;99.90;;;;;;4593903;19;20332;-40
2022/07/23 07:26:18;;;;;;;;;;;23.40;99.90;;;;;;4593541;19;19974;-35
2022/07/23 07:27:49;;;;;;;;;;;23.40;99.90;;;;;;4593899;19;19935;-39
2022/07/23 07:29:20;;;;;;;;;;;23.40;99.90;;;;;;4594159;19;20252;-39
2022/07/23 07:30:50;;;;;;;;;;;23.50;99.90;;;;;;4593431;19;19923;-35
2022/07/23 07:32:21;;;;;;;;;;;23.50;99.90;;;;;;4593714;19;19915;-35
2022/07/23 07:33:52;;;;;;;;;;;23.50;99.90;;;;;;4594191;19;19919;-39
2022/07/23 07:35:24;;;;;;;;;;;23.50;99.90;;;;;;4593719;19;19915;-35
2022/07/23 07:36:54;;;;;;;;;;;23.50;99.90;;;;;;4592404;19;19927;-36
2022/07/23 07:38:25;;;;;;;;;;;23.50;99.90;;;;;;4591673;19;19911;-34
2022/07/23 07:39:57;;;;;;;;;;;23.50;99.90;;;;;;4593817;19;20380;-36
2022/07/23 07:41:27;;;;;;;;;;;23.60;99.90;;;;;;4593946;19;19919;-43
2022/07/23 07:42:58;;;;;;;;;;;23.60;99.90;;;;;;4593059;19;19919;-38
2022/07/23 07:44:29;;;;;;;;;;;23.60;99.90;;;;;;4593832;19;20261;-39
2022/07/23 07:46:01;;;;;;;;;;;23.70;99.90;;;;;;4593866;19;19915;-38
2022/07/23 07:47:31;;;;;;;;;;;23.70;99.90;;;;;;4593483;19;19933;-38
2022/07/23 07:49:02;;;;;;;;;;;23.70;99.90;;;;;;4593141;19;20067;-36
2022/07/23 07:50:33;;;;;;;;;;;23.70;99.90;;;;;;4592998;19;19923;-38
2022/07/23 07:52:06;;;;;;;;;;;23.80;99.90;;;;;;4593264;19;19918;-40
2022/07/23 07:53:36;;;;;;;;;;;23.80;99.90;;;;;;4593243;19;19923;-41
2022/07/23 07:55:08;;;;;;;;;;;23.80;99.90;;;;;;4593022;19;19978;-36
2022/07/23 07:56:39;;;;;;;;;;;23.90;99.90;;;;;;4593172;19;19919;-37
2022/07/23 07:58:10;;;;;;;;;;;23.90;99.90;;;;;;4591260;19;19941;-40
2022/07/23 07:59:41;;;;;;;;;;;23.80;99.90;;;;;;4592560;19;19915;-35
2022/07/23 08:01:12;;;;;;;;;;;23.90;99.90;;;;;;4591990;19;19922;-42
2022/07/23 08:02:46;;;;;;;;;;;23.80;99.90;;;;;;4592252;19;19982;-35
2022/07/23 08:04:17;;;;;;;;;;;23.80;99.90;;;;;;4592568;19;20356;-44
2022/07/23 08:05:48;;;;;;;;;;;23.80;99.90;;;;;;4592976;19;19936;-36
2022/07/23 08:07:19;;;;;;;;;;;23.90;99.90;;;;;;4591583;19;19918;-39
2022/07/23 08:08:50;;;;;;;;;;;23.90;99.90;;;;;;4592532;19;20304;-35
2022/07/23 08:10:21;;;;;;;;;;;23.90;99.90;;;;;;4592556;19;19919;-39
2022/07/23 08:11:53;;;;;;;;;;;23.90;99.90;;;;;;4592947;19;20120;-39
2022/07/23 08:13:23;;;;;;;;;;;23.90;99.90;;;;;;4593144;19;19915;-42
2022/07/23 08:14:54;;;;;;;;;;;23.90;99.90;;;;;;4592294;19;20372;-37
2022/07/23 08:16:26;;;;;;;;;;;23.90;99.90;;;;;;4590837;19;19923;-39
2022/07/23 08:17:57;;;;;;;;;;;24.00;99.90;;;;;;4591503;19;19915;-38
2022/07/23 08:19:28;;;;;;;;;;;23.90;99.90;;;;;;4592777;19;19921;-36
2022/07/23 08:20:59;;;;;;;;;;;23.90;99.90;;;;;;4591528;19;19915;-35
2022/07/23 08:22:46;;;;;;;;;;;23.90;99.90;;;;;;4592445;19;19974;-34
2022/07/23 08:24:17;;;;;;;;;;;24.00;99.90;;;;;;4592032;19;19927;-35
2022/07/23 08:25:48;;;;;;;;;;;24.00;99.90;;;;;;4592453;19;19993;-39
2022/07/23 08:27:19;;;;;;;;;;;24.10;99.90;;;;;;4592602;19;19915;-36
2022/07/23 08:28:51;;;;;;;;;;;24.10;99.90;;;;;;4592247;19;20334;-35
2022/07/23 08:30:21;;;;;;;;;;;24.10;99.90;;;;;;4592568;19;19919;-42
2022/07/23 08:31:52;;;;;;;;;;;24.10;99.90;;;;;;4593024;19;20237;-43
2022/07/23 08:33:23;;;;;;;;;;;24.00;99.90;;;;;;4591097;19;19911;-42
2022/07/23 08:34:54;;;;;;;;;;;24.00;99.90;;;;;;4591918;19;19917;-34
2022/07/23 08:36:27;;;;;;;;;;;24.10;99.90;;;;;;4592287;19;19915;-34
2022/07/23 08:37:58;;;;;;;;;;;24.10;99.90;;;;;;4591567;19;19911;-35
2022/07/23 08:39:30;;;;;;;;;;;24.10;99.90;;;;;;4590856;19;19915;-37
2022/07/23 08:41:02;;;;;;;;;;;24.20;99.90;;;;;;4591793;19;19919;-35
2022/07/23 08:42:35;;;;;;;;;;;24.20;99.90;;;;;;4591264;19;19996;-38
2022/07/23 08:44:07;;;;;;;;;;;24.20;99.90;;;;;;4592149;19;19919;-44
2022/07/23 08:45:41;;;;;;;;;;;24.20;99.90;;;;;;4592098;19;19915;-37
2022/07/23 08:47:12;;;;;;;;;;;24.20;99.90;;;;;;4592322;19;19918;-38
2022/07/23 08:48:43;;;;;;;;;;;24.20;99.90;;;;;;4590890;19;19915;-43
2022/07/23 08:50:14;;;;;;;;;;;24.20;99.90;;;;;;4591651;19;20022;-35